High Glow — 3EAV5 — position and weather

sailwx.info

Track history (hours):
 
Tides and Currents Weather Stations Pressure Air Temp Water Temp Dewpoint Dewpoint Depression Visibility Wind Speed Wind Dir Waves Ship Positions

High Glow

Last reported at 2016-Jun-26 13:25 UTC. Time now 2016-Jul-01 09:57 UTC.
Position N 37°24' E 025°55'.

Length 180 m; draft 10.7 m.

Type: Ship. MMSI: 371179000.

Date/timePositionNaut miles runAvg speedWind from/ knotsBaromVisibWave heightAir tempDewpointWater temp
2016-Jun-26 13:25N 37°24' E 025°55'1413.3
2016-Jun-26 12:23N 37°34' E 025°44'1214.1
2016-Jun-26 11:33N 37°44' E 025°36'  
2016-Jun-23 07:33N 37°52' E 025°34'2913.9
2016-Jun-23 05:30N 37°26' E 025°50'28812.3
2016-Jun-22 06:10N 33°33' E 029°17'914.6
2016-Jun-22 05:33N 33°27' E 029°25'3214.8
2016-Jun-22 03:22N 33°06' E 029°54'1214.7
2016-Jun-22 02:33N 32°59' E 030°06'1514.6
2016-Jun-22 01:33N 32°51' E 030°20'1914.3
2016-Jun-22 00:14N 32°39' E 030°37'2414.1
2016-Jun-21 22:33N 32°24' E 030°59'1413.8
2016-Jun-21 21:33N 32°15' E 031°12'1414.1
2016-Jun-21 20:34N 32°07' E 031°26'1414.0
2016-Jun-21 19:33N 31°58' E 031°38'1414.1
2016-Jun-21 18:33N 31°50' E 031°51'1414.1
2016-Jun-21 17:34N 31°41' E 032°04'1414.3
2016-Jun-21 16:34N 31°31' E 032°16'1110.6
2016-Jun-21 15:33N 31°22' E 032°23'1010.1
2016-Jun-21 14:33N 31°12' E 032°20'9 8.7
2016-Jun-21 13:33N 31°04' E 032°19'9 8.6
2016-Jun-21 12:33N 30°55' E 032°19'  
Track history (hours):
 
Tides and Currents Weather Stations Pressure Air Temp Water Temp Dewpoint Dewpoint Depression Visibility Wind Speed Wind Dir Waves Ship Positions

High Glow

Last reported at 2016-Jun-26 13:25 UTC. Time now 2016-Jul-01 09:57 UTC.
Position N 37°24' E 025°55'.

Length 180 m; draft 10.7 m.

Type: Ship. MMSI: 371179000.

Date/timePositionNaut miles runAvg speedWind from/ knotsBaromVisibWave heightAir tempDewpointWater temp
2016-Jun-26 13:25N 37°24' E 025°55'1413.3
2016-Jun-26 12:23N 37°34' E 025°44'1214.1
2016-Jun-26 11:33N 37°44' E 025°36'  
2016-Jun-23 07:33N 37°52' E 025°34'2913.9
2016-Jun-23 05:30N 37°26' E 025°50'28812.3
2016-Jun-22 06:10N 33°33' E 029°17'914.6
2016-Jun-22 05:33N 33°27' E 029°25'3214.8
2016-Jun-22 03:22N 33°06' E 029°54'1214.7
2016-Jun-22 02:33N 32°59' E 030°06'1514.6
2016-Jun-22 01:33N 32°51' E 030°20'1914.3
2016-Jun-22 00:14N 32°39' E 030°37'2414.1
2016-Jun-21 22:33N 32°24' E 030°59'1413.8
2016-Jun-21 21:33N 32°15' E 031°12'1414.1
2016-Jun-21 20:34N 32°07' E 031°26'1414.0
2016-Jun-21 19:33N 31°58' E 031°38'1414.1
2016-Jun-21 18:33N 31°50' E 031°51'1414.1
2016-Jun-21 17:34N 31°41' E 032°04'1414.3
2016-Jun-21 16:34N 31°31' E 032°16'1110.6
2016-Jun-21 15:33N 31°22' E 032°23'1010.1
2016-Jun-21 14:33N 31°12' E 032°20'9 8.7
2016-Jun-21 13:33N 31°04' E 032°19'9 8.6
2016-Jun-21 12:33N 30°55' E 032°19'  

Dump ship's entire track history